Time;durP1;ratioP1;P1;durP2;ratioP2;P2;SDS_P1;SDS_P2;PMS_P1;PMS_P2;Temp;Humidity;BMP_temperature;BMP_pressure;BME280_temperature;BME280_humidity;BME280_pressure;Samples;Min_cycle;Max_cycle;Signal;HPM_P1;HPM_P2
2022/11/09 07:31:30;;;;;;;10.50;6.82;;;;;;;9.01;100.00;98816.31;5128604;27;20375;-78
2022/11/09 07:33:57;;;;;;;8.80;6.82;;;;;;;9.09;100.00;98815.38;5123393;28;20085;-78
2022/11/09 07:36:24;;;;;;;10.98;6.65;;;;;;;9.15;100.00;98794.84;5128456;28;20079;-79
2022/11/09 07:38:51;;;;;;;10.40;6.88;;;;;;;9.35;100.00;98787.84;5128817;28;20055;-79
2022/11/09 07:41:17;;;;;;;10.70;7.10;;;;;;;9.46;100.00;98805.53;5128852;28;20043;-78
2022/11/09 07:43:44;;;;;;;11.80;7.63;;;;;;;9.51;100.00;98807.69;5128040;28;20474;-79
2022/11/09 07:46:10;;;;;;;14.63;6.70;;;;;;;9.52;100.00;98795.81;5128308;28;20153;-79
2022/11/09 07:48:38;;;;;;;12.43;6.55;;;;;;;9.58;100.00;98789.63;5128876;28;20043;-79
2022/11/09 07:51:05;;;;;;;13.02;6.25;;;;;;;9.63;100.00;98794.50;5121756;28;20426;-79
2022/11/09 07:53:32;;;;;;;13.02;6.25;;;;;;;9.70;100.00;98798.16;5126598;28;20058;-79
2022/11/09 07:55:59;;;;;;;8.32;5.82;;;;;;;9.76;100.00;98785.69;5128385;28;20478;-79
2022/11/09 07:58:26;;;;;;;11.35;6.53;;;;;;;9.91;100.00;98792.78;5128631;28;20097;-79
2022/11/09 08:00:52;;;;;;;10.77;5.90;;;;;;;9.94;100.00;98802.41;5127798;28;20047;-79
2022/11/09 08:03:20;;;;;;;11.40;6.07;;;;;;;9.95;100.00;98817.69;5127739;28;20044;-79
2022/11/09 08:05:49;;;;;;;8.68;5.07;;;;;;;9.85;100.00;98822.56;5128460;28;20074;-79
2022/11/09 08:08:16;;;;;;;20.75;5.78;;;;;;;9.98;100.00;98820.03;5121079;28;20062;-79
2022/11/09 08:10:49;;;;;;;12.70;5.60;;;;;;;10.05;100.00;98804.63;5128193;28;20040;-79
2022/11/09 08:13:15;;;;;;;9.18;5.55;;;;;;;10.01;100.00;98814.22;5126688;28;20081;-79
2022/11/09 08:15:42;;;;;;;8.48;5.72;;;;;;;10.07;100.00;98815.31;5127910;28;20051;-79
2022/11/09 08:18:12;;;;;;;6.40;4.68;;;;;;;10.06;100.00;98816.34;5128403;27;20051;-79
2022/11/09 08:20:39;;;;;;;8.20;5.38;;;;;;;10.02;100.00;98812.34;5128241;27;20054;-80
2022/11/09 08:23:07;;;;;;;8.57;5.47;;;;;;;10.08;100.00;98800.69;5127645;28;20120;-79
2022/11/09 08:25:35;;;;;;;11.40;5.55;;;;;;;10.13;100.00;98800.97;5125642;28;20043;-79
2022/11/09 08:28:03;;;;;;;9.68;5.43;;;;;;;10.22;100.00;98805.28;5127875;28;20139;-79
2022/11/09 08:30:29;;;;;;;10.60;5.43;;;;;;;10.26;100.00;98806.56;5127629;27;20051;-80
2022/11/09 08:32:56;;;;;;;7.03;4.95;;;;;;;10.27;100.00;98796.53;5127483;28;20047;-79
2022/11/09 08:35:24;;;;;;;7.60;5.10;;;;;;;10.34;100.00;98807.50;5127216;28;20054;-78
2022/11/09 08:37:52;;;;;;;9.07;5.43;;;;;;;10.25;100.00;98785.88;5127654;28;20134;-79
2022/11/09 08:40:23;;;;;;;7.88;5.03;;;;;;;10.28;100.00;98806.34;5127784;28;20156;-79
2022/11/09 08:42:50;;;;;;;8.48;5.35;;;;;;;10.30;100.00;98803.44;5111619;27;20051;-79
2022/11/09 08:45:17;;;;;;;5.97;5.03;;;;;;;10.37;100.00;98802.53;5113539;28;20050;-79
2022/11/09 08:47:45;;;;;;;6.88;5.03;;;;;;;10.31;100.00;98811.41;5114389;28;20051;-79
2022/11/09 08:50:13;;;;;;;7.63;5.25;;;;;;;10.35;100.00;98815.47;5113457;28;20418;-79
2022/11/09 08:52:40;;;;;;;8.05;4.63;;;;;;;10.26;100.00;98800.28;5104689;28;20127;-79
2022/11/09 08:55:08;;;;;;;7.68;4.65;;;;;;;10.41;100.00;98805.72;5102404;28;20053;-79
2022/11/09 08:57:36;;;;;;;7.82;5.07;;;;;;;10.42;100.00;98805.50;5113212;28;20533;-79
2022/11/09 09:00:04;;;;;;;9.70;4.85;;;;;;;10.50;100.00;98814.59;5113787;28;20059;-79
2022/11/09 09:02:31;;;;;;;8.68;4.90;;;;;;;10.39;100.00;98799.63;5112811;28;20054;-79
2022/11/09 09:04:57;;;;;;;9.85;5.30;;;;;;;10.47;100.00;98807.66;5113542;28;20258;-79
2022/11/09 09:07:24;;;;;;;13.75;4.40;;;;;;;10.52;100.00;98813.34;5113377;28;20051;-79
2022/11/09 09:09:50;;;;;;;6.32;5.07;;;;;;;10.57;100.00;98804.63;5112306;28;20074;-79
2022/11/09 09:12:17;;;;;;;10.50;5.03;;;;;;;10.60;100.00;98815.13;5112649;28;20108;-79
2022/11/09 09:14:45;;;;;;;10.38;4.38;;;;;;;10.61;100.00;98801.31;5112349;28;20441;-79
2022/11/09 09:17:12;;;;;;;11.57;4.88;;;;;;;10.77;100.00;98807.53;5113058;28;20368;-79
2022/11/09 09:19:38;;;;;;;6.18;4.20;;;;;;;10.70;100.00;98806.63;5113700;28;20075;-79
2022/11/09 09:22:05;;;;;;;8.18;4.13;;;;;;;10.77;100.00;98807.53;5112227;28;20058;-79
2022/11/09 09:24:32;;;;;;;6.15;3.80;;;;;;;10.70;100.00;98793.03;5113430;28;20056;-79
2022/11/09 09:26:58;;;;;;;5.88;4.22;;;;;;;10.82;100.00;98798.78;5111953;28;20063;-79
2022/11/09 09:29:25;;;;;;;7.50;4.45;;;;;;;10.89;100.00;98818.72;5112733;28;20048;-79
2022/11/09 09:31:53;;;;;;;5.30;3.70;;;;;;;10.93;100.00;98820.84;5112894;28;20039;-79
2022/11/09 09:34:19;;;;;;;6.57;3.33;;;;;;;10.92;100.00;98805.56;5112072;28;20060;-79
2022/11/09 09:36:46;;;;;;;9.45;3.88;;;;;;;10.91;100.00;98806.59;5109705;28;20482;-79
2022/11/09 09:39:12;;;;;;;4.82;3.13;;;;;;;11.07;100.00;98819.09;5112126;28;20431;-79
2022/11/09 09:41:45;;;;;;;5.68;3.58;;;;;;;11.10;100.00;98818.69;5112520;28;20402;-79
2022/11/09 09:44:20;;;;;;;4.32;3.25;;;;;;;11.26;100.00;98817.56;5112150;28;20505;-79
2022/11/09 09:46:53;;;;;;;7.65;3.30;;;;;;;11.39;100.00;98815.97;5113145;28;20158;-79
2022/11/09 09:49:29;;;;;;;7.78;3.13;;;;;;;11.42;100.00;98826.47;5107143;28;20109;-79
2022/11/09 09:52:01;;;;;;;6.95;3.60;;;;;;;11.32;100.00;98805.88;5105671;28;20047;-79
2022/11/09 09:54:33;;;;;;;5.93;3.10;;;;;;;11.44;100.00;98827.97;5111280;28;20563;-79
2022/11/09 09:57:01;;;;;;;9.50;3.70;;;;;;;11.59;100.00;98837.88;5111858;28;20495;-79
2022/11/09 09:59:34;;;;;;;4.25;2.83;;;;;;;11.51;100.00;98825.28;5112756;28;20090;-79
2022/11/09 10:02:01;;;;;;;5.55;3.00;;;;;;;11.74;100.00;98835.03;5112407;28;20082;-79
2022/11/09 10:04:35;;;;;;;4.43;2.78;;;;;;;11.67;100.00;98829.56;5112418;28;20409;-79
2022/11/09 10:07:10;;;;;;;3.28;1.75;;;;;;;11.85;100.00;98837.22;5105785;28;20047;-79
2022/11/09 10:10:00;;;;;;;6.78;2.05;;;;;;;11.96;100.00;98827.66;5112382;28;20047;-79
2022/11/09 10:12:35;;;;;;;4.85;2.00;;;;;;;12.16;100.00;98834.06;5103374;28;20075;-79
2022/11/09 10:15:24;;;;;;;2.97;1.92;;;;;;;12.14;100.00;98822.50;5111073;28;20039;-80
2022/11/09 10:18:08;;;;;;;4.38;1.90;;;;;;;12.28;100.00;98833.44;5107447;28;20040;-79
2022/11/09 10:20:51;;;;;;;2.63;1.67;;;;;;;12.29;100.00;98837.88;5111197;28;20044;-79
2022/11/09 10:23:32;;;;;;;6.28;2.88;;;;;;;12.29;100.00;98827.78;5111360;28;20050;-80
2022/11/09 10:26:03;;;;;;;2.88;1.75;;;;;;;12.42;100.00;98840.63;5105879;28;20359;-80
2022/11/09 10:28:32;;;;;;;5.45;2.30;;;;;;;12.26;100.00;98830.94;5111833;28;20051;-80
2022/11/09 10:31:01;;;;;;;3.88;2.00;;;;;;;12.43;100.00;98831.41;5111522;28;20504;-80
2022/11/09 10:33:28;;;;;;;3.20;1.90;;;;;;;12.39;100.00;98800.16;5110982;28;20054;-80
2022/11/09 10:36:02;;;;;;;2.25;1.70;;;;;;;12.44;100.00;98813.16;5111966;28;20048;-79
2022/11/09 10:38:33;;;;;;;4.47;2.20;;;;;;;12.57;100.00;98819.50;5111791;28;20406;-80
2022/11/09 10:41:04;;;;;;;1.92;1.58;;;;;;;12.65;100.00;98823.91;5110316;28;20047;-80
2022/11/09 10:43:30;;;;;;;2.30;1.88;;;;;;;12.70;100.00;98818.66;5110860;28;20169;-79
2022/11/09 10:46:03;;;;;;;2.72;1.75;;;;;;;12.73;100.00;98826.44;5111083;28;20050;-80
2022/11/09 10:48:32;;;;;;;2.35;1.55;;;;;;;12.70;100.00;98813.22;5111444;28;20480;-79
2022/11/09 10:51:01;;;;;;;7.78;1.70;;;;;;;12.78;100.00;98804.00;5111646;28;20044;-80
2022/11/09 10:53:28;;;;;;;2.90;1.42;;;;;;;12.95;100.00;98807.16;5110664;28;20071;-79
2022/11/09 10:55:56;;;;;;;2.55;2.08;;;;;;;13.07;100.00;98800.03;5109949;28;20055;-80
2022/11/09 10:58:28;;;;;;;2.10;1.88;;;;;;;13.00;100.00;98791.00;5105619;28;20048;-81
2022/11/09 11:00:58;;;;;;;3.17;1.80;;;;;;;13.06;100.00;98781.97;5108180;28;20051;-79
2022/11/09 11:03:25;;;;;;;4.07;1.40;;;;;;;13.11;100.00;98794.97;5110538;28;20058;-80
2022/11/09 11:05:58;;;;;;;3.05;1.80;;;;;;;13.23;100.00;98787.84;5111417;28;20048;-80
2022/11/09 11:08:30;;;;;;;2.50;1.80;;;;;;;13.26;100.00;98775.66;5111199;28;20069;-79
2022/11/09 11:11:08;;;;;;;1.90;1.55;;;;;;;13.19;100.00;98769.38;5111499;28;20093;-80
2022/11/09 11:13:34;;;;;;;3.53;1.73;;;;;;;13.45;100.00;98793.94;5109420;28;20058;-80
2022/11/09 11:16:01;;;;;;;2.15;1.50;;;;;;;13.34;100.00;98777.34;5109754;28;20050;-80
2022/11/09 11:18:28;;;;;;;2.58;1.35;;;;;;;13.55;100.00;98793.50;5101138;28;20396;-80
2022/11/09 11:21:14;;;;;;;4.97;1.48;;;;;;;13.49;100.00;98777.13;5111007;28;20040;-79
2022/11/09 11:23:42;;;;;;;2.70;1.50;;;;;;;13.45;100.00;98768.53;5102903;28;20109;-79
2022/11/09 11:26:27;;;;;;;4.00;1.42;;;;;;;13.68;100.00;98789.88;5110884;28;20479;-80
2022/11/09 11:29:00;;;;;;;2.47;1.42;;;;;;;13.67;100.00;98768.25;5111045;28;20050;-80
2022/11/09 11:31:26;;;;;;;4.50;2.25;;;;;;;13.70;100.00;98770.53;5111181;28;20071;-80
2022/11/09 11:33:53;;;;;;;1.40;1.30;;;;;;;13.62;100.00;98758.81;5110404;28;20047;-80
2022/11/09 11:36:28;;;;;;;4.95;1.50;;;;;;;13.74;100.00;98780.81;5110849;28;20047;-80
2022/11/09 11:39:12;;;;;;;2.45;1.30;;;;;;;13.70;100.00;98768.69;5108431;28;20060;-82
2022/11/09 11:42:07;;;;;;;4.00;1.48;;;;;;;13.78;100.00;98756.66;5110442;28;20040;-80
2022/11/09 11:44:48;;;;;;;2.22;1.42;;;;;;;13.80;100.00;98760.00;5110417;28;20134;-80
2022/11/09 11:47:19;;;;;;;2.40;1.48;;;;;;;13.89;100.00;98771.53;5110894;28;20075;-80
2022/11/09 11:50:08;;;;;;;2.40;1.25;;;;;;;13.78;100.00;98757.50;5111112;28;20051;-80
2022/11/09 11:52:47;;;;;;;3.20;1.33;;;;;;;13.79;100.00;98753.72;5106759;28;20051;-80
2022/11/09 11:55:30;;;;;;;4.07;1.73;;;;;;;13.76;100.00;98769.69;5110736;28;20058;-80
2022/11/09 11:58:15;;;;;;;4.15;1.33;;;;;;;13.72;100.00;98763.81;5109069;28;20058;-80
2022/11/09 12:00:50;;;;;;;3.30;1.65;;;;;;;13.66;100.00;98763.84;5090438;28;20525;-80
2022/11/09 12:03:40;;;;;;;1.52;1.30;;;;;;;13.76;100.00;98778.75;5089870;28;20535;-80
2022/11/09 12:06:18;;;;;;;2.05;1.20;;;;;;;13.78;100.00;98756.66;5090795;28;20390;-81
2022/11/09 12:09:04;;;;;;;3.05;1.42;;;;;;;13.84;100.00;98766.72;5090375;28;20059;-80
2022/11/09 12:11:44;;;;;;;2.75;1.55;;;;;;;13.63;100.00;98754.19;5096308;28;20054;-79
2022/11/09 12:14:22;;;;;;;1.77;1.20;;;;;;;13.65;100.00;98745.78;5107256;28;20055;-79
2022/11/09 12:16:55;;;;;;;2.58;1.55;;;;;;;13.68;100.00;98756.28;5112222;28;20505;-79
2022/11/09 12:19:55;;;;;;;2.17;1.50;;;;;;;13.74;100.00;98741.75;5114505;27;20517;-80
2022/11/09 12:22:33;;;;;;;2.95;1.45;;;;;;;13.73;100.00;98735.47;5113854;28;20059;-80
2022/11/09 12:25:11;;;;;;;5.63;1.40;;;;;;;13.77;100.00;98749.50;5114509;28;20069;-80
2022/11/09 12:27:51;;;;;;;5.28;1.60;;;;;;;13.71;100.00;98731.25;5114390;28;20047;-80
2022/11/09 12:30:20;;;;;;;1.75;1.50;;;;;;;13.79;100.00;98731.03;5107191;28;20047;-80
2022/11/09 12:32:54;;;;;;;4.17;1.40;;;;;;;13.79;100.00;98740.06;5113055;28;20051;-80
2022/11/09 12:35:31;;;;;;;4.68;1.40;;;;;;;13.57;100.00;98716.81;5113849;28;20051;-80
2022/11/09 12:38:05;;;;;;;5.53;1.35;;;;;;;13.68;100.00;98729.78;5114245;28;20074;-80
2022/11/09 12:40:36;;;;;;;1.40;1.27;;;;;;;13.68;100.00;98732.53;5114035;28;20054;-80
2022/11/09 12:43:16;;;;;;;4.82;1.63;;;;;;;13.64;100.00;98709.44;5113331;28;20050;-80
2022/11/09 12:45:44;;;;;;;3.25;1.50;;;;;;;13.68;100.00;98723.50;5114315;28;20043;-81
2022/11/09 12:48:20;;;;;;;1.67;1.33;;;;;;;13.73;100.00;98743.66;5111933;28;20164;-81
2022/11/09 12:50:48;;;;;;;3.75;1.30;;;;;;;13.84;100.00;98727.66;5113894;28;20479;-80
2022/11/09 12:53:15;;;;;;;2.15;1.40;;;;;;;13.78;100.00;98723.88;5113170;28;20048;-80
2022/11/09 12:55:47;;;;;;;2.03;1.33;;;;;;;13.69;100.00;98722.44;5113953;28;20125;-80
2022/11/09 12:58:23;;;;;;;4.75;1.83;;;;;;;13.73;100.00;98727.28;5113552;28;20062;-80
2022/11/09 13:00:52;;;;;;;2.05;1.42;;;;;;;13.53;100.00;98713.66;5113589;28;20138;-80
2022/11/09 13:03:25;;;;;;;5.47;1.75;;;;;;;13.72;100.00;98727.47;5113525;28;20058;-80
2022/11/09 13:06:17;;;;;;;6.03;1.52;;;;;;;13.59;100.00;98709.25;5112076;28;20040;-80
2022/11/09 13:08:57;;;;;;;2.22;1.48;;;;;;;13.65;100.00;98738.41;5093588;28;20052;-80
2022/11/09 13:11:34;;;;;;;3.47;1.70;;;;;;;13.69;100.00;98722.44;5093089;28;20444;-81
2022/11/09 13:14:32;;;;;;;4.28;1.80;;;;;;;13.81;100.00;98737.09;5091525;28;20415;-81
2022/11/09 13:17:20;;;;;;;6.18;1.40;;;;;;;13.63;100.00;98724.16;5093024;28;20479;-81
2022/11/09 13:19:53;;;;;;;4.07;1.60;;;;;;;13.72;100.00;98743.88;5093301;28;20055;-80
2022/11/09 13:22:59;;;;;;;2.85;1.55;;;;;;;13.76;100.00;98745.09;5091737;28;20041;-80
2022/11/09 13:25:49;;;;;;;2.58;1.70;;;;;;;13.72;100.00;98733.78;5112928;28;20055;-80
2022/11/09 13:28:53;;;;;;;2.03;1.55;;;;;;;13.81;100.00;98740.66;5113067;28;20054;-80
2022/11/09 13:31:58;;;;;;;3.33;1.70;;;;;;;13.81;100.00;98734.38;5092726;28;20052;-80
2022/11/09 13:34:42;;;;;;;3.00;1.90;;;;;;;13.79;100.00;98750.97;5092674;28;20075;-81
2022/11/09 13:37:45;;;;;;;5.57;2.03;;;;;;;13.78;100.00;98749.31;5091903;28;20055;-80
2022/11/09 13:40:42;;;;;;;2.95;2.00;;;;;;;13.80;100.00;98758.13;5108658;28;20135;-80
2022/11/09 13:43:20;;;;;;;4.97;2.20;;;;;;;13.77;100.00;98754.97;5112048;28;20039;-80
2022/11/09 13:45:49;;;;;;;5.40;3.00;;;;;;;13.61;100.00;98739.91;5113146;28;20058;-80
2022/11/09 13:48:30;;;;;;;7.72;2.97;;;;;;;13.76;100.00;98764.22;5112582;28;20074;-80
2022/11/09 13:50:58;;;;;;;3.42;2.22;;;;;;;13.87;100.00;98762.72;5113024;28;20620;-80
2022/11/09 13:53:30;;;;;;;8.70;2.92;;;;;;;13.80;100.00;98754.53;5104747;28;20056;-80
2022/11/09 13:55:57;;;;;;;5.15;2.40;;;;;;;13.88;100.00;98770.72;5112636;28;20065;-80
2022/11/09 13:58:30;;;;;;;6.20;2.50;;;;;;;13.67;100.00;98749.97;5112682;28;20410;-80
2022/11/09 14:00:56;;;;;;;4.75;2.33;;;;;;;13.76;100.00;98776.00;5111166;28;20055;-80
2022/11/09 14:03:27;;;;;;;4.18;2.42;;;;;;;13.83;100.00;98781.44;5111625;28;20063;-80
2022/11/09 14:05:57;;;;;;;5.15;2.70;;;;;;;13.74;100.00;98785.47;5112737;28;20078;-80
2022/11/09 14:08:26;;;;;;;3.33;2.40;;;;;;;13.73;100.00;98787.38;5112184;28;20078;-80
2022/11/09 14:11:09;;;;;;;3.45;2.35;;;;;;;13.80;100.00;98787.34;5112450;28;20463;-80
2022/11/09 14:14:02;;;;;;;5.55;2.83;;;;;;;13.79;100.00;98774.75;5109091;28;20051;-80
2022/11/09 14:16:38;;;;;;;3.50;2.35;;;;;;;13.81;100.00;98775.34;5110323;28;20055;-80
2022/11/09 14:19:18;;;;;;;3.67;2.88;;;;;;;13.85;100.00;98783.94;5112183;28;20054;-80
2022/11/09 14:21:47;;;;;;;6.82;2.25;;;;;;;13.78;100.00;98782.09;5112203;28;20134;-80
2022/11/09 14:24:20;;;;;;;3.35;2.20;;;;;;;13.77;100.00;98785.84;5111122;28;20047;-80
2022/11/09 14:27:01;;;;;;;2.58;2.15;;;;;;;13.77;100.00;98780.41;5112353;28;20078;-80
2022/11/09 14:29:31;;;;;;;3.80;2.00;;;;;;;13.82;100.00;98782.50;5109751;28;20055;-80
2022/11/09 14:31:59;;;;;;;4.70;2.10;;;;;;;13.77;100.00;98787.75;5105386;28;20146;-80
2022/11/09 14:34:27;;;;;;;4.32;2.35;;;;;;;13.80;100.00;98801.00;5111111;28;20067;-80
2022/11/09 14:36:54;;;;;;;3.70;1.80;;;;;;;13.65;100.00;98787.59;5111447;28;20052;-80
2022/11/09 14:39:26;;;;;;;3.70;1.90;;;;;;;13.60;100.00;98801.06;5111160;28;20044;-80
2022/11/09 14:41:54;;;;;;;2.88;2.15;;;;;;;13.43;100.00;98796.03;5112048;28;20051;-80
2022/11/09 14:44:25;;;;;;;3.10;2.10;;;;;;;13.41;100.00;98798.16;5111351;28;20052;-80
2022/11/09 14:46:53;;;;;;;8.90;4.50;;;;;;;13.55;100.00;98803.56;5112907;28;20046;-78
2022/11/09 14:49:20;;;;;;;5.70;2.60;;;;;;;13.46;100.00;98797.50;5112636;28;20052;-78
2022/11/09 14:51:49;;;;;;;3.63;2.63;;;;;;;13.42;100.00;98805.28;5111202;28;20050;-78
2022/11/09 14:54:19;;;;;;;6.45;2.38;;;;;;;13.35;100.00;98809.91;5110648;28;20132;-78
2022/11/09 14:56:46;;;;;;;5.30;2.55;;;;;;;13.26;100.00;98792.03;5109999;28;20441;-78
2022/11/09 14:59:15;;;;;;;5.25;2.50;;;;;;;13.18;100.00;98805.91;5111107;28;20071;-78
2022/11/09 15:01:57;;;;;;;4.63;2.78;;;;;;;13.21;100.00;98808.22;5109901;28;20061;-78
2022/11/09 15:04:25;;;;;;;4.00;2.83;;;;;;;13.20;100.00;98811.97;5110572;28;20054;-78
2022/11/09 15:06:55;;;;;;;5.35;2.83;;;;;;;13.18;100.00;98801.28;5111221;28;20497;-78
2022/11/09 15:09:27;;;;;;;7.20;2.88;;;;;;;13.27;100.00;98821.84;5109036;28;20104;-78
2022/11/09 15:11:54;;;;;;;5.75;2.90;;;;;;;13.25;100.00;98823.13;5111105;28;20040;-78
2022/11/09 15:14:27;;;;;;;5.78;2.92;;;;;;;13.11;100.00;98833.19;5110507;28;20139;-78
2022/11/09 15:17:00;;;;;;;5.50;2.70;;;;;;;13.06;100.00;98831.09;5111250;28;20411;-78
2022/11/09 15:19:30;;;;;;;18.85;3.20;;;;;;;12.92;100.00;98837.59;5111080;28;20047;-78
2022/11/09 15:21:58;;;;;;;7.25;2.85;;;;;;;12.86;100.00;98839.25;5111035;28;20047;-78
2022/11/09 15:24:26;;;;;;;4.22;2.80;;;;;;;12.98;100.00;98819.56;5109776;28;20411;-78
2022/11/09 15:26:55;;;;;;;12.00;7.22;;;;;;;12.91;100.00;98825.81;5110291;28;20050;-78
2022/11/09 15:29:35;;;;;;;5.95;5.07;;;;;;;12.90;100.00;98835.06;5110310;28;20066;-78
2022/11/09 15:32:11;;;;;;;7.43;5.28;;;;;;;12.70;100.00;98826.00;5108723;28;20047;-78
2022/11/09 15:34:40;;;;;;;7.80;4.07;;;;;;;12.74;100.00;98836.28;5110675;28;20055;-78
2022/11/09 15:37:21;;;;;;;7.78;4.07;;;;;;;12.74;100.00;98838.19;5110437;28;20048;-78
2022/11/09 15:39:48;;;;;;;8.65;4.50;;;;;;;12.72;100.00;98843.88;5110676;28;20052;-78
2022/11/09 15:42:14;;;;;;;7.22;4.25;;;;;;;12.72;100.00;98845.72;5105619;28;20052;-78
2022/11/09 15:44:43;;;;;;;8.70;5.32;;;;;;;12.60;100.00;98840.06;5110289;28;20122;-78
2022/11/09 15:47:22;;;;;;;8.00;5.93;;;;;;;12.71;100.00;98850.34;5105896;28;20122;-78
2022/11/09 15:49:48;;;;;;;9.73;6.07;;;;;;;12.63;100.00;98850.56;5111554;28;20070;-79
2022/11/09 15:52:15;;;;;;;9.00;6.65;;;;;;;12.61;100.00;98851.81;5112084;28;20493;-78
2022/11/09 15:54:43;;;;;;;13.63;5.72;;;;;;;12.59;100.00;98834.81;5106440;28;20051;-79
2022/11/09 15:57:17;;;;;;;11.38;4.43;;;;;;;12.49;100.00;98849.66;5093019;28;20052;-79
2022/11/09 15:59:45;;;;;;;11.10;5.57;;;;;;;12.52;100.00;98837.50;5094101;28;20518;-79
2022/11/09 16:02:12;;;;;;;10.05;4.85;;;;;;;12.54;100.00;98847.16;5095027;28;20048;-78
2022/11/09 16:04:38;;;;;;;9.00;4.80;;;;;;;12.50;100.00;98854.06;5093983;28;20075;-80
2022/11/09 16:07:05;;;;;;;6.70;4.20;;;;;;;12.32;100.00;98830.09;5094590;28;20067;-80
2022/11/09 16:09:32;;;;;;;7.28;3.78;;;;;;;12.30;100.00;98839.53;5086445;28;20048;-80
2022/11/09 16:12:06;;;;;;;7.03;4.00;;;;;;;12.49;100.00;98848.81;5106536;28;20488;-80
2022/11/09 16:14:35;;;;;;;6.22;3.75;;;;;;;12.49;100.00;98860.56;5116909;27;20054;-79
2022/11/09 16:17:02;;;;;;;9.57;4.40;;;;;;;12.47;100.00;98859.09;5114423;28;20059;-80
2022/11/09 16:19:29;;;;;;;7.03;4.03;;;;;;;12.31;100.00;98849.41;5110073;28;20131;-80
2022/11/09 16:21:56;;;;;;;7.25;3.95;;;;;;;12.40;100.00;98864.53;5112129;28;20088;-80
2022/11/09 16:24:22;;;;;;;7.60;4.25;;;;;;;12.25;100.00;98858.38;5101565;28;20048;-80
2022/11/09 16:26:49;;;;;;;5.75;3.83;;;;;;;12.20;100.00;98851.66;5112544;28;20561;-79
2022/11/09 16:29:17;;;;;;;6.53;3.70;;;;;;;12.19;100.00;98854.59;5113993;28;20071;-78
2022/11/09 16:31:43;;;;;;;5.90;4.00;;;;;;;12.15;100.00;98864.19;5111996;28;20043;-78
2022/11/09 16:34:10;;;;;;;5.13;3.80;;;;;;;12.23;100.00;98871.38;5105164;28;20050;-78
2022/11/09 16:36:38;;;;;;;5.28;3.72;;;;;;;12.12;100.00;98865.47;5111922;28;20062;-78
2022/11/09 16:39:08;;;;;;;6.32;4.10;;;;;;;12.06;100.00;98868.13;5111578;28;20043;-79
2022/11/09 16:41:38;;;;;;;11.32;4.10;;;;;;;12.15;100.00;98872.38;5110499;28;20063;-78
2022/11/09 16:44:06;;;;;;;9.70;3.92;;;;;;;12.04;100.00;98877.38;5091176;28;20044;-77
2022/11/09 16:46:35;;;;;;;5.50;3.83;;;;;;;12.03;100.00;98877.56;5093090;28;20070;-78
2022/11/09 16:49:04;;;;;;;4.82;3.30;;;;;;;12.03;100.00;98889.31;5092802;28;20059;-78
2022/11/09 16:51:31;;;;;;;5.88;3.58;;;;;;;12.03;100.00;98880.31;5108082;28;20546;-78
2022/11/09 16:53:57;;;;;;;5.63;3.78;;;;;;;11.94;100.00;98889.66;5112262;28;20044;-78
2022/11/09 16:56:24;;;;;;;9.43;4.43;;;;;;;11.84;100.00;98881.81;5111557;28;20050;-78
2022/11/09 16:58:51;;;;;;;6.78;3.95;;;;;;;11.83;100.00;98885.59;5110427;28;20048;-78
2022/11/09 17:01:18;;;;;;;6.95;3.63;;;;;;;11.92;100.00;98902.63;5111091;28;20054;-78
2022/11/09 17:03:45;;;;;;;9.18;4.13;;;;;;;11.95;100.00;98907.69;5110157;28;20047;-78
2022/11/09 17:06:12;;;;;;;5.03;3.83;;;;;;;11.85;100.00;98918.94;5108657;28;20157;-78
2022/11/09 17:08:39;;;;;;;7.28;4.35;;;;;;;11.98;100.00;98908.16;5110747;28;20426;-78
2022/11/09 17:11:07;;;;;;;6.25;3.97;;;;;;;12.03;100.00;98927.44;5110808;28;20051;-78
2022/11/09 17:13:34;;;;;;;8.35;4.00;;;;;;;11.93;100.00;98932.41;5110204;28;20051;-78
2022/11/09 17:16:04;;;;;;;11.13;3.75;;;;;;;11.90;100.00;98924.59;5111472;28;20512;-78
2022/11/09 17:18:31;;;;;;;16.02;5.03;;;;;;;11.77;100.00;98919.06;5110447;28;20059;-78
2022/11/09 17:20:59;;;;;;;8.68;4.40;;;;;;;11.77;100.00;98927.22;5110780;28;20043;-78
2022/11/09 17:23:26;;;;;;;16.63;11.40;;;;;;;11.80;100.00;98954.94;5102658;28;20060;-78
2022/11/09 17:25:57;;;;;;;10.40;5.93;;;;;;;11.69;100.00;98950.84;5110252;28;20485;-78
2022/11/09 17:28:24;;;;;;;13.32;6.28;;;;;;;11.79;100.00;98957.84;5111147;28;20051;-76
2022/11/09 17:30:51;;;;;;;19.00;12.38;;;;;;;11.84;100.00;98963.53;5110805;28;20051;-78
2022/11/09 17:33:17;;;;;;;15.80;10.15;;;;;;;11.70;100.00;98957.16;5109554;28;20482;-78
2022/11/09 17:35:44;;;;;;;9.68;4.65;;;;;;;11.75;100.00;98962.00;5110614;28;20048;-77
2022/11/09 17:38:12;;;;;;;9.10;3.80;;;;;;;11.78;100.00;98967.06;5110312;28;20058;-78
2022/11/09 17:40:39;;;;;;;5.18;3.13;;;;;;;11.68;100.00;98961.94;5105364;28;20131;-78
2022/11/09 17:43:06;;;;;;;5.20;3.20;;;;;;;11.57;100.00;98973.38;5109877;28;20042;-78
2022/11/09 17:45:34;;;;;;;6.72;2.92;;;;;;;11.57;100.00;98976.09;5110092;28;20059;-78
2022/11/09 17:48:01;;;;;;;8.65;2.80;;;;;;;11.56;100.00;98980.72;5109830;28;20045;-78
2022/11/09 17:50:27;;;;;;;3.38;2.80;;;;;;;11.42;100.00;98968.84;5110612;28;20055;-78
2022/11/09 17:52:54;;;;;;;11.85;5.90;;;;;;;11.48;100.00;98973.50;5109102;28;20044;-77
2022/11/09 17:55:22;;;;;;;5.82;4.15;;;;;;;11.45;100.00;98973.88;5109724;28;20048;-78
2022/11/09 17:57:48;;;;;;;9.98;5.07;;;;;;;11.47;100.00;98981.84;5107221;28;20449;-78
2022/11/09 18:00:16;;;;;;;9.65;3.30;;;;;;;11.42;100.00;98960.66;5106384;28;20135;-78
2022/11/09 18:02:42;;;;;;;11.63;8.50;;;;;;;11.50;100.00;98992.34;5108742;28;20521;-77
2022/11/09 18:05:10;;;;;;;10.15;6.30;;;;;;;11.42;100.00;98979.72;5108977;28;20050;-78
2022/11/09 18:07:37;;;;;;;8.98;4.00;;;;;;;11.52;100.00;98988.41;5121183;27;20051;-78
2022/11/09 18:10:04;;;;;;;4.95;3.97;;;;;;;11.57;100.00;98987.00;5110179;28;20052;-78
2022/11/09 18:12:32;;;;;;;8.98;4.85;;;;;;;11.62;100.00;98982.66;5104466;28;20480;-78
2022/11/09 18:14:58;;;;;;;11.20;6.53;;;;;;;11.54;100.00;98980.03;5094323;28;20078;-78
2022/11/09 18:17:25;;;;;;;10.07;6.63;;;;;;;11.49;100.00;98969.75;5109460;28;20052;-78
2022/11/09 18:19:51;;;;;;;11.55;7.15;;;;;;;11.42;100.00;98971.56;5110248;28;20517;-78
2022/11/09 18:22:18;;;;;;;12.55;6.82;;;;;;;11.42;100.00;98984.34;5108660;28;20457;-78
2022/11/09 18:24:45;;;;;;;12.35;6.72;;;;;;;11.48;100.00;98981.66;5109701;28;20699;-78
2022/11/09 18:27:11;;;;;;;11.02;6.13;;;;;;;11.56;100.00;98993.47;5110137;28;20051;-78
2022/11/09 18:29:39;;;;;;;12.45;7.90;;;;;;;11.59;100.00;98993.06;5103537;27;20060;-78
2022/11/09 18:32:05;;;;;;;12.55;9.23;;;;;;;11.52;100.00;98999.31;5103655;28;20043;-77
2022/11/09 18:34:32;;;;;;;13.88;8.93;;;;;;;11.54;100.00;98998.28;5108684;28;20477;-77
2022/11/09 18:36:58;;;;;;;14.18;8.25;;;;;;;11.45;100.00;99001.09;5109478;28;20058;-78
2022/11/09 18:39:25;;;;;;;14.80;8.18;;;;;;;11.45;100.00;98994.84;5108952;28;20075;-78
2022/11/09 18:41:53;;;;;;;18.08;8.80;;;;;;;11.54;100.00;98987.38;5109343;28;20051;-78
2022/11/09 18:44:19;;;;;;;14.40;9.15;;;;;;;11.45;100.00;98989.38;5108096;28;20100;-78
2022/11/09 18:46:47;;;;;;;13.80;9.20;;;;;;;11.51;100.00;99000.31;5109412;28;20512;-78
2022/11/09 18:49:14;;;;;;;11.98;8.48;;;;;;;11.53;100.00;99005.56;5107509;28;20388;-78
2022/11/09 18:51:41;;;;;;;13.23;9.23;;;;;;;11.44;100.00;99012.19;5118927;27;20057;-78
2022/11/09 18:54:07;;;;;;;14.02;8.23;;;;;;;11.40;100.00;99016.34;5100177;28;20055;-78
2022/11/09 18:56:34;;;;;;;13.25;7.78;;;;;;;11.37;100.00;99014.88;5097123;28;20513;-78
2022/11/09 18:59:00;;;;;;;11.77;7.00;;;;;;;11.39;100.00;99020.94;5108074;28;20051;-78
2022/11/09 19:01:27;;;;;;;13.45;7.25;;;;;;;11.39;100.00;99022.84;5108654;28;20440;-78
2022/11/09 19:03:55;;;;;;;13.05;6.93;;;;;;;11.37;100.00;99022.19;5104040;28;20051;-78
2022/11/09 19:06:23;;;;;;;10.35;6.82;;;;;;;11.40;100.00;99030.81;5105713;28;20055;-78
2022/11/09 19:11:34;;;;;;;9.18;5.68;;;;;;;11.41;100.00;99043.38;5097096;28;20144;-78
2022/11/09 19:14:01;;;;;;;9.15;5.32;;;;;;;11.45;100.00;99041.09;5088100;28;20056;-78
2022/11/09 19:16:28;;;;;;;9.85;5.70;;;;;;;11.36;100.00;99025.94;5103010;28;20050;-79